Time;durP1;ratioP1;P1;durP2;ratioP2;P2;SDS_P1;SDS_P2;PMS_P1;PMS_P2;Temp;Humidity;BMP_temperature;BMP_pressure;BME280_temperature;BME280_humidity;BME280_pressure;Samples;Min_cycle;Max_cycle;Signal;HPM_P1;HPM_P2
2022/09/14 00:00:13;;;;;;;3.47;1.47;;;;;;;16.53;53.29;94387.50;2619576;39;20600;-77
2022/09/14 00:02:45;;;;;;;1.83;1.80;;;;;;;16.09;57.77;94398.66;2619562;39;20554;-77
2022/09/14 00:05:14;;;;;;;1.73;1.63;;;;;;;17.60;53.63;94424.41;2619170;47;20149;-78
2022/09/14 00:07:42;;;;;;;2.27;2.17;;;;;;;16.82;53.66;94419.84;2619245;47;20148;-78
2022/09/14 00:10:12;;;;;;;2.43;1.63;;;;;;;18.04;52.19;94418.00;2619110;47;20157;-78
2022/09/14 00:12:40;;;;;;;1.63;1.63;;;;;;;17.97;50.35;94401.53;2619274;47;20200;-79
2022/09/14 00:15:10;;;;;;;1.87;1.80;;;;;;;15.71;55.58;94399.78;2619223;47;20157;-77
2022/09/14 00:17:39;;;;;;;1.57;1.50;;;;;;;17.07;54.49;94420.69;2618963;47;20702;-78
2022/09/14 00:20:11;;;;;;;1.67;1.57;;;;;;;17.61;51.82;94414.38;2619062;47;20188;-78
2022/09/14 00:22:40;;;;;;;2.37;1.60;;;;;;;16.42;52.38;94360.28;2618982;54;20176;-78
2022/09/14 00:25:10;;;;;;;1.47;1.40;;;;;;;17.87;52.15;94418.75;2618968;39;20551;-78
2022/09/14 00:27:39;;;;;;;1.43;1.43;;;;;;;18.04;50.89;94405.88;2618780;47;20699;-79
2022/09/14 00:30:09;;;;;;;2.20;2.10;;;;;;;15.87;56.32;94419.19;2621533;54;20156;-78
2022/09/14 00:32:38;;;;;;;1.73;1.73;;;;;;;17.49;53.62;94430.84;2622697;53;20188;-78
2022/09/14 00:35:10;;;;;;;2.17;2.07;;;;;;;16.59;53.39;94398.25;2622111;54;20141;-78
2022/09/14 00:37:38;;;;;;;1.70;1.60;;;;;;;16.95;53.63;94412.03;2619267;47;20195;-79
2022/09/14 00:40:09;;;;;;;1.87;1.77;;;;;;;16.27;53.43;94396.63;2617751;47;20728;-78
2022/09/14 00:42:38;;;;;;;1.77;1.67;;;;;;;15.74;55.62;94380.53;2618649;54;20152;-78
2022/09/14 00:45:15;;;;;;;2.63;2.43;;;;;;;16.69;54.23;94415.47;2618705;54;20196;-78
2022/09/14 00:47:44;;;;;;;1.87;1.77;;;;;;;15.27;56.42;94389.34;2618251;47;20730;-77
2022/09/14 00:50:16;;;;;;;1.67;1.57;;;;;;;15.49;56.85;94428.09;2618458;54;20153;-78
2022/09/14 00:52:49;;;;;;;1.43;1.43;;;;;;;15.60;56.74;94418.94;2618228;54;20153;-77
2022/09/14 00:55:21;;;;;;;1.50;1.40;;;;;;;16.40;55.25;94422.44;2618426;47;20148;-78
2022/09/14 00:57:52;;;;;;;1.60;1.50;;;;;;;17.13;54.59;94443.56;2617788;47;20494;-78
2022/09/14 01:00:23;;;;;;;4.10;2.03;;;;;;;17.01;54.11;94437.81;2618298;47;20411;-77
2022/09/14 01:02:52;;;;;;;1.60;1.50;;;;;;;17.78;52.74;94452.38;2618465;47;20755;-77
2022/09/14 01:05:29;;;;;;;1.93;1.83;;;;;;;18.30;50.91;94443.09;2621185;47;20153;-79
2022/09/14 01:08:30;;;;;;;1.43;1.43;;;;;;;18.10;51.17;94431.63;2622448;47;20160;-77
2022/09/14 01:11:13;;;;;;;4.73;1.47;;;;;;;17.49;51.41;94414.38;2621071;46;20171;-78
2022/09/14 01:13:50;;;;;;;3.57;1.90;;;;;;;18.35;50.26;94429.47;2619257;46;20179;-77
2022/09/14 01:16:31;;;;;;;1.80;1.70;;;;;;;18.31;49.72;94412.97;2620003;47;20156;-78
2022/09/14 01:19:02;;;;;;;1.60;1.57;;;;;;;16.64;52.61;94426.19;2620739;46;20153;-77
2022/09/14 01:21:37;;;;;;;1.53;1.43;;;;;;;15.47;55.27;94388.09;2619380;46;20677;-77
2022/09/14 01:24:13;;;;;;;1.80;1.70;;;;;;;15.10;56.31;94399.16;2618104;47;20148;-77
2022/09/14 01:27:21;;;;;;;1.90;1.80;;;;;;;15.09;58.20;94443.34;2618087;47;20156;-77
2022/09/14 01:29:57;;;;;;;1.63;1.53;;;;;;;15.35;58.09;94425.81;2618199;54;20287;-78
2022/09/14 01:32:30;;;;;;;2.90;1.63;;;;;;;14.98;57.06;94426.81;2617955;47;20195;-77
2022/09/14 01:35:06;;;;;;;1.40;1.40;;;;;;;14.98;58.30;94421.13;2618335;47;20153;-78
2022/09/14 01:37:39;;;;;;;1.43;1.33;;;;;;;14.54;58.21;94385.66;2618255;54;20257;-78
2022/09/14 01:40:14;;;;;;;2.03;1.43;;;;;;;14.50;57.75;94402.69;2617900;47;20256;-77
2022/09/14 01:42:48;;;;;;;1.83;1.73;;;;;;;15.59;58.48;94425.34;2618060;54;20718;-78
2022/09/14 01:45:20;;;;;;;1.30;1.30;;;;;;;15.60;57.49;94435.34;2617641;46;20171;-77
2022/09/14 01:47:53;;;;;;;1.40;1.40;;;;;;;15.27;56.44;94400.78;2618141;54;20256;-77
2022/09/14 01:50:27;;;;;;;1.80;1.70;;;;;;;15.33;56.22;94390.81;2617850;47;20204;-78
2022/09/14 01:53:01;;;;;;;1.67;1.60;;;;;;;16.95;55.08;94446.34;2618044;47;20148;-77
2022/09/14 01:55:35;;;;;;;1.20;1.20;;;;;;;16.92;51.51;94436.34;2617986;47;20149;-77
2022/09/14 01:58:10;;;;;;;1.73;1.63;;;;;;;17.74;51.98;94432.34;2618129;54;20163;-77
2022/09/14 02:00:44;;;;;;;3.20;1.53;;;;;;;16.34;51.54;94380.97;2618144;54;20140;-77
2022/09/14 02:03:17;;;;;;;1.57;1.47;;;;;;;16.49;54.35;94409.63;2619538;47;20149;-80
2022/09/14 02:05:57;;;;;;;1.20;1.20;;;;;;;15.99;52.66;94391.44;2618329;54;20161;-77
2022/09/14 02:08:29;;;;;;;2.37;2.17;;;;;;;16.13;53.63;94407.94;2617877;54;20180;-77
2022/09/14 02:10:58;;;;;;;1.80;1.70;;;;;;;16.74;54.50;94434.09;2617892;54;20148;-77
2022/09/14 02:13:31;;;;;;;2.00;1.90;;;;;;;16.60;53.58;94439.72;2617933;47;20149;-77
2022/09/14 02:15:59;;;;;;;1.17;1.17;;;;;;;16.58;53.98;94437.56;2618102;47;20160;-77
2022/09/14 02:18:28;;;;;;;1.70;1.60;;;;;;;16.17;54.15;94405.13;2617883;54;20191;-78
2022/09/14 02:21:01;;;;;;;1.30;1.30;;;;;;;17.20;52.40;94389.97;2618018;47;20223;-77
2022/09/14 02:23:30;;;;;;;1.00;1.00;;;;;;;16.75;51.86;94418.38;2617315;54;20149;-77
2022/09/14 02:26:00;;;;;;;3.30;1.93;;;;;;;15.71;52.87;94339.13;2618510;47;20676;-77
2022/09/14 02:28:32;;;;;;;1.70;1.60;;;;;;;16.21;52.52;94395.88;2618756;47;20152;-78
2022/09/14 02:31:09;;;;;;;1.60;1.40;;;;;;;14.92;56.61;94416.75;2619127;39;20563;-78
2022/09/14 02:33:47;;;;;;;1.13;1.13;;;;;;;15.45;56.59;94422.31;2618210;47;20145;-78
2022/09/14 02:36:21;;;;;;;1.20;1.20;;;;;;;16.53;55.35;94443.97;2618576;47;20688;-79
2022/09/14 02:38:58;;;;;;;1.90;1.80;;;;;;;16.98;53.39;94436.34;2618481;54;20718;-78
2022/09/14 02:41:38;;;;;;;1.50;1.40;;;;;;;16.66;53.23;94405.47;2619268;54;20184;-78
2022/09/14 02:44:20;;;;;;;1.60;1.50;;;;;;;17.02;53.10;94416.34;2618523;54;20156;-79
2022/09/14 02:46:56;;;;;;;1.37;1.37;;;;;;;16.71;52.08;94441.22;2618690;47;20157;-78
2022/09/14 02:49:34;;;;;;;1.30;1.30;;;;;;;17.74;51.11;94444.50;2618287;47;20199;-79
2022/09/14 02:52:12;;;;;;;1.70;1.60;;;;;;;17.02;50.91;94371.31;2618403;54;20157;-79
2022/09/14 02:54:48;;;;;;;1.50;1.23;;;;;;;18.46;49.14;94437.34;2619029;54;20152;-78
2022/09/14 02:57:17;;;;;;;2.07;1.33;;;;;;;17.44;48.42;94392.88;2618359;47;20145;-78
2022/09/14 02:59:48;;;;;;;1.37;1.37;;;;;;;16.07;52.89;94387.94;2618445;47;20163;-78
2022/09/14 03:02:17;;;;;;;1.27;1.17;;;;;;;17.61;50.23;94396.50;2618062;47;20163;-78
2022/09/14 03:04:45;;;;;;;1.73;1.63;;;;;;;16.43;51.76;94423.88;2618383;54;20187;-78
2022/09/14 03:07:14;;;;;;;2.17;1.90;;;;;;;16.82;53.10;94431.28;2618315;47;20161;-79
2022/09/14 03:09:42;;;;;;;1.07;1.07;;;;;;;16.49;52.22;94415.34;2618715;47;20204;-78
2022/09/14 03:12:11;;;;;;;1.23;1.10;;;;;;;17.77;51.33;94447.38;2618779;54;20157;-79
2022/09/14 03:14:40;;;;;;;3.63;2.90;;;;;;;16.88;49.72;94439.91;2618834;47;20157;-78
2022/09/14 03:17:11;;;;;;;1.10;1.10;;;;;;;16.32;53.88;94392.38;2619816;47;20196;-78
2022/09/14 03:19:40;;;;;;;1.57;1.50;;;;;;;17.18;52.00;94441.47;2619567;47;20145;-78
2022/09/14 03:22:08;;;;;;;3.87;1.30;;;;;;;16.31;52.03;94418.81;2618956;54;20172;-78
2022/09/14 03:24:37;;;;;;;1.47;1.40;;;;;;;15.91;53.37;94404.94;2618843;47;20160;-77
2022/09/14 03:27:06;;;;;;;1.10;1.10;;;;;;;16.44;54.28;94422.47;2618810;47;20149;-77
2022/09/14 03:29:35;;;;;;;1.30;1.30;;;;;;;16.99;51.32;94441.38;2618301;54;20149;-78
2022/09/14 03:32:04;;;;;;;1.53;1.43;;;;;;;14.63;57.42;94445.59;2617833;47;20656;-78
2022/09/14 03:34:39;;;;;;;2.03;1.90;;;;;;;15.39;54.83;94413.72;2618222;47;20148;-77
2022/09/14 03:37:08;;;;;;;1.43;1.33;;;;;;;14.47;55.33;94315.75;2618531;47;20152;-78
2022/09/14 03:39:37;;;;;;;0.97;0.97;;;;;;;14.10;57.78;94411.34;2618529;39;20753;-77
2022/09/14 03:42:06;;;;;;;1.77;1.67;;;;;;;14.19;59.34;94432.16;2618348;47;20188;-78
2022/09/14 03:44:35;;;;;;;1.70;1.60;;;;;;;13.28;61.64;94439.13;2618507;47;20669;-78
2022/09/14 03:47:03;;;;;;;1.80;1.70;;;;;;;15.02;59.41;94429.72;2618213;46;20153;-79
2022/09/14 03:49:38;;;;;;;1.37;1.33;;;;;;;14.93;57.53;94435.31;2618450;47;20157;-78
2022/09/14 03:52:06;;;;;;;1.73;1.63;;;;;;;15.87;55.75;94397.06;2619028;47;20149;-78
2022/09/14 03:54:40;;;;;;;1.30;1.30;;;;;;;16.73;53.27;94404.06;2619725;47;20157;-78
2022/09/14 03:57:09;;;;;;;1.53;1.43;;;;;;;16.38;52.84;94400.28;2619599;46;20155;-79
2022/09/14 03:59:37;;;;;;;1.20;1.20;;;;;;;17.41;51.47;94431.50;2619025;47;20196;-77
2022/09/14 04:02:06;;;;;;;3.70;1.67;;;;;;;17.38;48.51;94432.94;2618896;54;20153;-77
2022/09/14 04:04:38;;;;;;;1.90;1.80;;;;;;;14.82;55.33;94396.69;2618914;47;20196;-78
2022/09/14 04:07:07;;;;;;;1.40;1.40;;;;;;;16.88;53.71;94445.63;2615657;54;20372;-78
2022/09/14 04:09:36;;;;;;;1.47;1.43;;;;;;;17.04;52.77;94434.25;2618474;54;20149;-77
2022/09/14 04:12:05;;;;;;;1.67;1.60;;;;;;;16.13;52.31;94404.38;2618425;47;20684;-77
2022/09/14 04:14:34;;;;;;;2.00;1.90;;;;;;;15.51;54.59;94434.53;2617826;47;20174;-77
2022/09/14 04:17:02;;;;;;;1.83;1.73;;;;;;;16.09;54.88;94445.09;2617289;47;20183;-77
2022/09/14 04:19:36;;;;;;;1.70;1.60;;;;;;;15.68;55.29;94449.00;2617446;54;20585;-77
2022/09/14 04:22:08;;;;;;;1.60;1.60;;;;;;;15.78;55.18;94421.25;2618502;47;20184;-76
2022/09/14 04:24:40;;;;;;;2.40;1.60;;;;;;;15.12;56.95;94424.84;2618609;54;20160;-76
2022/09/14 04:27:08;;;;;;;1.80;1.70;;;;;;;15.24;54.81;94427.13;2620033;54;20157;-77
2022/09/14 04:29:40;;;;;;;1.50;1.50;;;;;;;15.87;55.89;94419.19;2618599;47;20189;-78
2022/09/14 04:32:08;;;;;;;1.60;1.50;;;;;;;15.30;56.21;94404.38;2618491;46;20161;-77
2022/09/14 04:34:38;;;;;;;1.80;1.70;;;;;;;16.13;55.16;94425.09;2618024;54;20173;-81
2022/09/14 04:37:09;;;;;;;2.10;2.00;;;;;;;15.73;54.36;94436.19;2618385;46;20161;-77
2022/09/14 04:39:38;;;;;;;3.10;1.93;;;;;;;15.68;57.18;94446.88;2618121;54;20165;-77
2022/09/14 04:42:07;;;;;;;2.00;1.90;;;;;;;15.30;57.70;94447.16;2618812;54;20273;-78
2022/09/14 04:44:36;;;;;;;1.60;1.50;;;;;;;17.18;52.87;94461.50;2618927;46;20144;-78
2022/09/14 04:47:05;;;;;;;1.73;1.40;;;;;;;17.41;51.21;94417.91;2614068;47;20627;-74
2022/09/14 04:49:33;;;;;;;1.30;1.23;;;;;;;18.22;49.68;94454.56;2615390;47;20203;-76
2022/09/14 04:52:02;;;;;;;1.67;1.67;;;;;;;18.55;49.06;94457.41;2615556;47;20153;-74
2022/09/14 04:54:33;;;;;;;1.53;1.53;;;;;;;18.50;48.84;94442.38;2616336;54;20204;-75
2022/09/14 04:57:02;;;;;;;1.57;1.53;;;;;;;18.96;48.06;94452.34;2616554;54;20157;-74
2022/09/14 04:59:31;;;;;;;2.37;2.17;;;;;;;18.83;47.90;94445.94;2615496;46;20165;-75
2022/09/14 05:01:59;;;;;;;1.50;1.50;;;;;;;19.09;47.40;94468.09;2616504;46;20233;-75
2022/09/14 05:04:28;;;;;;;1.80;1.70;;;;;;;19.21;47.20;94450.81;2616396;54;20157;-73
2022/09/14 05:06:57;;;;;;;1.73;1.63;;;;;;;19.32;47.24;94468.72;2616444;47;20292;-73
2022/09/14 05:09:25;;;;;;;2.30;2.20;;;;;;;18.39;50.04;94476.06;2617340;46;20265;-82
2022/09/14 05:11:57;;;;;;;1.67;1.57;;;;;;;17.66;51.43;94455.94;2616230;47;20288;-75
2022/09/14 05:14:25;;;;;;;3.07;2.47;;;;;;;18.22;50.85;94471.75;2616337;47;20362;-77
2022/09/14 05:16:55;;;;;;;2.03;1.93;;;;;;;17.73;52.97;94480.31;2616048;47;20160;-75
2022/09/14 05:19:24;;;;;;;1.90;1.80;;;;;;;17.36;54.00;94476.56;2616585;54;20675;-75
2022/09/14 05:21:52;;;;;;;3.53;3.13;;;;;;;17.17;54.28;94465.78;2616717;54;20396;-74
2022/09/14 05:24:21;;;;;;;2.40;2.30;;;;;;;16.89;54.41;94455.63;2616550;47;20168;-74
2022/09/14 05:26:49;;;;;;;2.10;1.67;;;;;;;17.62;54.10;94486.69;2616502;54;20211;-76
2022/09/14 05:29:21;;;;;;;2.30;2.20;;;;;;;18.02;52.52;94492.53;2615738;39;20668;-76
2022/09/14 05:31:49;;;;;;;3.37;2.30;;;;;;;18.38;51.71;94483.25;2616600;54;20296;-76
2022/09/14 05:34:18;;;;;;;2.23;2.03;;;;;;;17.50;52.50;94461.59;2616716;54;20224;-76
2022/09/14 05:36:47;;;;;;;1.97;1.87;;;;;;;17.82;52.19;94494.63;2616544;54;20359;-75
2022/09/14 05:39:16;;;;;;;1.80;1.70;;;;;;;17.80;50.39;94431.59;2608669;54;20176;-75
2022/09/14 05:41:46;;;;;;;2.20;1.97;;;;;;;17.36;53.13;94470.13;2615413;54;20193;-76
2022/09/14 05:44:14;;;;;;;3.00;2.90;;;;;;;17.07;54.68;94477.91;2617427;47;20157;-75
2022/09/14 05:46:45;;;;;;;2.57;2.37;;;;;;;17.24;55.12;94493.69;2617728;47;20164;-75
2022/09/14 05:52:30;;;;;;;2.03;1.83;;;;;;;18.77;48.48;94483.94;2615901;47;20259;-77
2022/09/14 05:55:08;;;;;;;1.57;1.47;;;;;;;18.97;47.38;94505.44;2617201;39;20689;-78
2022/09/14 05:57:37;;;;;;;2.50;2.30;;;;;;;19.37;48.44;94473.03;2616653;47;20160;-77
2022/09/14 06:00:07;;;;;;;2.00;1.90;;;;;;;19.14;46.30;94475.94;2616884;47;20408;-75
2022/09/14 06:02:38;;;;;;;3.78;2.10;;;;;;;19.29;48.58;94496.00;2616595;54;20157;-78
2022/09/14 06:08:07;;;;;;;3.50;3.20;;;;;;;20.10;46.70;94502.09;2617011;54;20672;-74
2022/09/14 06:10:36;;;;;;;2.17;2.00;;;;;;;19.69;47.22;94495.84;2619049;54;20244;-73
2022/09/14 06:13:07;;;;;;;1.98;1.88;;;;;;;19.32;46.44;94437.13;2620001;47;20269;-76
2022/09/14 06:15:36;;;;;;;2.20;2.10;;;;;;;20.23;46.00;94519.97;2618408;39;20563;-73
2022/09/14 06:18:08;;;;;;;2.42;2.28;;;;;;;20.31;46.01;94485.44;2617581;47;20236;-75
2022/09/14 06:20:36;;;;;;;3.53;3.22;;;;;;;20.71;45.13;94503.81;2617348;47;20237;-74
2022/09/14 06:23:05;;;;;;;3.22;2.92;;;;;;;20.30;45.23;94492.63;2617381;54;20795;-76
2022/09/14 06:25:34;;;;;;;2.20;2.10;;;;;;;20.37;45.68;94496.19;2616879;47;20394;-76
2022/09/14 06:28:02;;;;;;;2.30;2.10;;;;;;;19.36;47.01;94483.78;2615446;54;20598;-76
2022/09/14 06:30:31;;;;;;;3.10;2.50;;;;;;;20.12;46.99;94501.38;2615000;54;20185;-76
2022/09/14 06:32:59;;;;;;;3.03;2.50;;;;;;;19.92;46.14;94484.97;2615223;47;20235;-76
2022/09/14 06:35:31;;;;;;;2.88;2.30;;;;;;;19.71;46.70;94486.50;2614943;47;20161;-75
2022/09/14 06:38:00;;;;;;;2.53;2.28;;;;;;;20.02;46.48;94490.66;2614962;54;20684;-79
2022/09/14 06:40:32;;;;;;;2.15;2.05;;;;;;;19.69;46.54;94495.16;2616625;46;20238;-76
2022/09/14 06:43:01;;;;;;;3.00;2.25;;;;;;;18.74;48.03;94501.88;2617696;47;20164;-76
2022/09/14 06:45:31;;;;;;;2.30;2.20;;;;;;;19.28;47.38;94491.69;2617818;54;20160;-76
2022/09/14 06:48:00;;;;;;;2.65;2.45;;;;;;;18.73;48.42;94468.88;2617846;54;20163;-77
2022/09/14 06:53:36;;;;;;;1.93;1.83;;;;;;;18.39;48.22;94456.00;2617849;46;20140;-76
2022/09/14 06:56:30;;;;;;;2.27;2.07;;;;;;;18.50;49.84;94487.53;2618899;31;20683;-75
2022/09/14 06:59:00;;;;;;;2.10;2.00;;;;;;;18.94;49.30;94509.75;2617993;47;20272;-77
2022/09/14 07:01:29;;;;;;;2.20;2.10;;;;;;;19.51;47.48;94476.56;2618789;47;20228;-76
2022/09/14 07:04:33;;;;;;;1.97;1.87;;;;;;;19.04;46.49;94443.69;2618050;54;20153;-78
2022/09/14 07:09:48;;;;;;;1.83;1.73;;;;;;;20.09;45.25;94508.59;2615341;47;20145;-77
2022/09/14 07:12:17;;;;;;;1.75;1.65;;;;;;;20.12;44.69;94484.84;2617916;47;20152;-78
2022/09/14 07:14:46;;;;;;;1.90;1.80;;;;;;;18.77;47.63;94491.84;2617925;54;20156;-76
2022/09/14 07:17:24;;;;;;;1.93;1.83;;;;;;;18.44;48.20;94457.44;2617782;54;20200;-76
2022/09/14 07:19:58;;;;;;;2.40;2.20;;;;;;;18.02;49.21;94463.16;2618051;47;20168;-77
2022/09/14 07:22:29;;;;;;;1.50;1.50;;;;;;;18.62;49.56;94478.94;2617748;39;20554;-77
2022/09/14 07:24:59;;;;;;;1.87;1.50;;;;;;;18.74;48.28;94471.03;2618255;54;20244;-76
2022/09/14 07:27:28;;;;;;;2.43;2.33;;;;;;;18.72;49.10;94476.06;2617982;47;20160;-77
2022/09/14 07:29:57;;;;;;;1.63;1.53;;;;;;;18.52;49.34;94494.00;2617123;54;21228;-78
2022/09/14 07:32:25;;;;;;;2.23;2.13;;;;;;;19.30;48.16;94492.41;2618743;39;20547;-77
2022/09/14 07:34:54;;;;;;;2.03;1.93;;;;;;;19.55;47.23;94480.84;2616150;47;20804;-77
2022/09/14 07:37:25;;;;;;;2.53;1.67;;;;;;;19.77;46.31;94438.38;2617440;54;20145;-75
2022/09/14 07:39:57;;;;;;;2.80;2.65;;;;;;;19.82;46.33;94454.13;2618491;46;20192;-77
2022/09/14 07:42:26;;;;;;;1.95;1.80;;;;;;;20.17;45.15;94477.63;2618790;47;20224;-75
2022/09/14 07:44:54;;;;;;;2.40;2.22;;;;;;;20.57;44.30;94475.88;2618925;47;20269;-76
2022/09/14 07:47:23;;;;;;;2.00;1.90;;;;;;;20.60;44.18;94477.31;2618589;54;20248;-76
2022/09/14 07:49:51;;;;;;;2.95;2.10;;;;;;;20.65;44.11;94467.19;2618202;47;20196;-76
2022/09/14 07:55:19;;;;;;;2.25;2.15;;;;;;;20.97;43.88;94479.84;2617784;46;20168;-76
2022/09/14 07:57:48;;;;;;;2.00;1.90;;;;;;;21.02;43.47;94476.19;2617897;54;20313;-76
2022/09/14 08:00:18;;;;;;;2.03;1.92;;;;;;;20.09;45.01;94465.47;2616317;54;20199;-76
2022/09/14 08:03:14;;;;;;;1.52;1.52;;;;;;;20.14;44.44;94423.72;2617948;47;20161;-75
2022/09/14 08:05:47;;;;;;;2.55;2.05;;;;;;;20.03;44.07;94402.97;2618002;39;20529;-76
2022/09/14 08:08:15;;;;;;;2.05;1.85;;;;;;;20.81;43.80;94455.50;2618436;54;20156;-75
2022/09/14 08:10:47;;;;;;;2.33;2.15;;;;;;;21.31;43.74;94470.16;2616435;54;20172;-75
2022/09/14 08:13:17;;;;;;;2.10;2.00;;;;;;;21.14;41.93;94429.97;2617739;54;20260;-75
2022/09/14 08:15:46;;;;;;;2.05;1.95;;;;;;;22.21;41.63;94487.72;2615494;54;20412;-76
2022/09/14 08:18:14;;;;;;;1.63;1.50;;;;;;;22.74;40.36;94484.69;2618535;54;20157;-76
2022/09/14 08:20:43;;;;;;;1.95;1.85;;;;;;;22.55;41.05;94466.94;2618309;31;20617;-74
2022/09/14 08:23:11;;;;;;;2.50;2.10;;;;;;;22.80;40.86;94481.75;2618297;47;20268;-75
2022/09/14 08:25:40;;;;;;;1.90;1.80;;;;;;;22.39;40.76;94473.00;2618676;47;20331;-74
2022/09/14 08:28:11;;;;;;;2.00;1.90;;;;;;;22.11;41.40;94476.31;2618748;54;20169;-74
2022/09/14 08:30:40;;;;;;;1.95;1.85;;;;;;;21.97;42.23;94469.28;2617605;51;20257;-74
2022/09/14 08:33:08;;;;;;;2.20;2.10;;;;;;;22.41;40.10;94472.25;2618130;54;20177;-74
2022/09/14 08:35:44;;;;;;;1.80;1.70;;;;;;;22.80;40.53;94460.81;2618267;54;20209;-76
2022/09/14 08:38:33;;;;;;;1.98;1.88;;;;;;;22.75;39.02;94424.78;2615915;54;20244;-76
2022/09/14 08:44:15;;;;;;;3.00;1.80;;;;;;;23.54;39.52;94486.88;2616727;47;20161;-76
2022/09/14 08:46:48;;;;;;;2.97;1.52;;;;;;;23.44;38.25;94458.16;2618398;54;20172;-73
2022/09/14 08:49:26;;;;;;;1.70;1.60;;;;;;;23.22;38.27;94404.44;2618265;54;20165;-78
2022/09/14 08:51:54;;;;;;;6.63;1.98;;;;;;;23.73;38.49;94459.03;2618342;47;20183;-76
2022/09/14 08:54:24;;;;;;;1.80;1.70;;;;;;;23.85;38.33;94476.13;2618070;54;20199;-75
2022/09/14 08:57:01;;;;;;;1.65;1.63;;;;;;;24.16;38.33;94458.09;2618308;47;20261;-76
2022/09/14 09:00:20;;;;;;;1.63;1.50;;;;;;;23.50;38.41;94356.88;2618954;54;20149;-77
2022/09/14 09:06:16;;;;;;;1.80;1.70;;;;;;;23.44;38.16;94424.19;2618077;47;20141;-76
2022/09/14 09:08:56;;;;;;;1.58;1.48;;;;;;;23.86;37.58;94442.84;2617974;47;20181;-75
2022/09/14 09:11:30;;;;;;;2.05;1.85;;;;;;;23.99;37.03;94426.63;2617956;54;20323;-77
2022/09/14 09:14:00;;;;;;;1.58;1.48;;;;;;;23.30;38.36;94433.84;2618432;46;20164;-76
2022/09/14 09:16:30;;;;;;;2.90;1.83;;;;;;;23.56;38.35;94447.09;2617395;47;20153;-77
2022/09/14 09:19:02;;;;;;;2.40;2.20;;;;;;;24.03;37.41;94461.25;2617766;47;20160;-77
2022/09/14 09:24:31;;;;;;;1.83;1.73;;;;;;;23.70;37.93;94454.75;2622868;47;20161;-77
2022/09/14 09:27:00;;;;;;;1.23;1.23;;;;;;;24.04;37.52;94451.13;2622981;47;20156;-76
2022/09/14 09:29:29;;;;;;;3.05;1.77;;;;;;;23.92;38.43;94445.59;2622670;47;20754;-77
2022/09/14 09:31:58;;;;;;;2.03;1.90;;;;;;;24.06;38.33;94427.91;2619340;39;20574;-78
2022/09/14 09:34:29;;;;;;;1.90;1.73;;;;;;;23.87;37.14;94357.50;2617540;54;20660;-77
2022/09/14 09:37:02;;;;;;;1.65;1.63;;;;;;;24.22;37.05;94423.22;2617588;47;20165;-77
2022/09/14 09:39:33;;;;;;;1.25;1.15;;;;;;;24.40;37.01;94438.00;2616639;54;20157;-77
2022/09/14 09:42:04;;;;;;;1.65;1.55;;;;;;;24.53;36.82;94449.28;2617616;47;20180;-76
2022/09/14 09:45:00;;;;;;;1.50;1.40;;;;;;;24.79;36.73;94443.53;2617197;54;20244;-76
2022/09/14 09:47:32;;;;;;;2.15;1.40;;;;;;;25.11;36.54;94442.00;2618082;47;20665;-77
2022/09/14 09:50:03;;;;;;;1.67;1.58;;;;;;;25.75;36.15;94443.88;2617672;47;20156;-76
2022/09/14 09:52:37;;;;;;;1.55;1.45;;;;;;;25.89;35.23;94434.03;2617382;47;20134;-76
2022/09/14 09:55:08;;;;;;;12.05;5.85;;;;;;;25.84;34.74;94442.13;2615611;39;21041;-75
2022/09/14 09:57:38;;;;;;;1.50;1.40;;;;;;;25.85;35.06;94432.66;2617453;47;20165;-74
2022/09/14 10:00:23;;;;;;;2.05;1.95;;;;;;;25.26;35.65;94427.13;2617892;47;20149;-76
2022/09/14 10:02:52;;;;;;;2.90;1.73;;;;;;;25.20;35.53;94390.31;2614547;54;20251;-75
2022/09/14 10:05:24;;;;;;;1.80;1.70;;;;;;;25.43;35.82;94414.28;2617700;47;20203;-76
2022/09/14 10:08:00;;;;;;;1.52;1.42;;;;;;;25.68;35.24;94405.66;2617970;47;20212;-75
2022/09/14 10:10:43;;;;;;;2.30;1.50;;;;;;;25.42;35.05;94389.00;2617845;54;20168;-76
2022/09/14 10:13:25;;;;;;;1.83;1.63;;;;;;;25.72;35.17;94384.50;2617798;47;20156;-76
2022/09/14 10:15:53;;;;;;;1.70;1.55;;;;;;;25.52;34.89;94416.97;2617140;47;20260;-75
2022/09/14 10:18:23;;;;;;;2.33;2.13;;;;;;;25.85;34.66;94397.16;2617686;39;20649;-76
2022/09/14 10:21:09;;;;;;;1.88;1.77;;;;;;;26.14;33.91;94406.41;2617699;54;20312;-77
2022/09/14 10:23:47;;;;;;;2.90;2.33;;;;;;;26.29;34.52;94405.97;2618784;54;20152;-77
2022/09/14 10:26:26;;;;;;;2.50;1.60;;;;;;;26.01;34.26;94385.03;2618665;47;20148;-77
2022/09/14 10:28:55;;;;;;;1.50;1.40;;;;;;;25.91;32.02;94388.28;2617328;47;20224;-77
2022/09/14 10:31:38;;;;;;;1.42;1.30;;;;;;;26.22;33.40;94396.72;2619643;54;20660;-78
2022/09/14 10:34:19;;;;;;;2.55;2.42;;;;;;;26.38;33.34;94387.50;2619121;54;20157;-76
2022/09/14 10:37:30;;;;;;;2.22;1.52;;;;;;;26.52;32.86;94360.91;2616083;47;20156;-80
2022/09/14 10:40:17;;;;;;;1.70;1.60;;;;;;;26.56;32.00;94362.97;2616725;47;20153;-77
2022/09/14 10:43:04;;;;;;;1.63;1.52;;;;;;;26.96;30.49;94398.66;2617902;47;20767;-76
2022/09/14 10:45:37;;;;;;;1.50;1.40;;;;;;;27.05;30.12;94385.28;2617770;54;20215;-77
2022/09/14 10:48:26;;;;;;;1.67;1.58;;;;;;;26.57;31.96;94378.19;2617823;47;20268;-76
2022/09/14 10:51:03;;;;;;;1.55;1.45;;;;;;;26.60;32.32;94388.97;2616882;54;20160;-76
2022/09/14 10:53:46;;;;;;;1.70;1.65;;;;;;;26.48;32.20;94358.16;2615573;47;20276;-76
2022/09/14 10:56:21;;;;;;;1.05;1.05;;;;;;;26.80;30.06;94378.84;2614946;51;20253;-76
2022/09/14 10:59:07;;;;;;;2.78;1.17;;;;;;;27.02;29.46;94374.50;2615368;47;20168;-76
2022/09/14 11:02:00;;;;;;;0.73;0.73;;;;;;;27.01;28.44;94367.97;2616391;54;20278;-75
2022/09/14 11:05:01;;;;;;;1.02;0.82;;;;;;;26.68;27.50;94368.34;2615930;54;20157;-75
2022/09/14 11:07:37;;;;;;;0.70;0.47;;;;;;;26.81;27.74;94363.53;2616289;54;20303;-78
2022/09/14 11:10:22;;;;;;;0.45;0.45;;;;;;;26.70;26.15;94359.56;2616938;54;20157;-77
2022/09/14 11:13:29;;;;;;;0.80;0.80;;;;;;;26.09;28.85;94297.03;2617476;47;20280;-77
2022/09/14 11:16:06;;;;;;;0.52;0.52;;;;;;;26.64;27.99;94377.22;2616017;54;20260;-77
2022/09/14 11:18:45;;;;;;;0.40;0.40;;;;;;;26.08;27.19;94359.47;2616827;46;20167;-78
2022/09/14 11:21:28;;;;;;;0.55;0.55;;;;;;;26.01;28.36;94337.91;2616896;54;20183;-78
2022/09/14 11:24:01;;;;;;;1.40;1.27;;;;;;;26.02;26.92;94374.16;2617244;31;20579;-77
2022/09/14 11:26:35;;;;;;;0.75;0.75;;;;;;;25.82;27.68;94346.50;2615988;47;20288;-77
2022/09/14 11:29:18;;;;;;;0.70;0.70;;;;;;;26.19;28.86;94348.94;2616582;54;20184;-79
2022/09/14 11:31:52;;;;;;;1.92;1.42;;;;;;;26.56;29.17;94351.34;2616365;47;20172;-78
2022/09/14 11:34:26;;;;;;;0.40;0.40;;;;;;;26.58;27.58;94351.28;2616352;54;20172;-78
2022/09/14 11:36:59;;;;;;;0.50;0.50;;;;;;;26.49;28.19;94326.91;2617102;47;20256;-77
2022/09/14 11:39:31;;;;;;;0.70;0.70;;;;;;;26.22;27.36;94343.78;2616848;47;20288;-75
2022/09/14 11:42:04;;;;;;;0.57;0.57;;;;;;;26.24;28.31;94344.41;2616834;54;20189;-74
2022/09/14 11:44:39;;;;;;;0.70;0.70;;;;;;;26.59;28.84;94335.28;2616563;47;20392;-75
2022/09/14 11:47:12;;;;;;;0.63;0.63;;;;;;;26.55;28.55;94330.31;2616893;47;20251;-76
2022/09/14 11:49:54;;;;;;;0.60;0.60;;;;;;;26.30;28.62;94305.78;2616966;47;20244;-76
2022/09/14 11:52:25;;;;;;;0.52;0.52;;;;;;;26.61;27.48;94326.50;2617031;47;20148;-77
2022/09/14 11:54:54;;;;;;;0.80;0.80;;;;;;;26.62;28.82;94336.63;2616981;39;20595;-78
2022/09/14 11:57:26;;;;;;;0.60;0.60;;;;;;;26.52;28.65;94331.16;2617087;47;20156;-78
2022/09/14 12:00:00;;;;;;;0.60;0.60;;;;;;;26.39;29.08;94313.44;2616504;47;20145;-77
2022/09/14 12:03:13;;;;;;;1.55;0.70;;;;;;;26.41;28.79;94309.75;2616947;47;20168;-78
2022/09/14 12:05:43;;;;;;;0.40;0.40;;;;;;;26.36;27.65;94343.34;2616889;54;20171;-77
2022/09/14 12:08:42;;;;;;;1.17;0.80;;;;;;;26.43;27.34;94335.81;2617457;54;20169;-78
2022/09/14 12:11:32;;;;;;;0.70;0.70;;;;;;;26.72;27.07;94321.75;2617415;54;20161;-78
2022/09/14 12:14:39;;;;;;;0.73;0.73;;;;;;;26.67;26.99;94331.38;2617726;54;20161;-77
2022/09/14 12:17:22;;;;;;;0.55;0.55;;;;;;;26.59;29.01;94320.75;2617565;54;20265;-77
2022/09/14 12:19:54;;;;;;;0.88;0.88;;;;;;;26.92;28.65;94334.88;2619462;39;20562;-76
2022/09/14 12:22:34;;;;;;;0.70;0.70;;;;;;;26.50;27.79;94317.44;2619391;47;21056;-76
2022/09/14 12:25:05;;;;;;;0.90;0.90;;;;;;;26.74;27.74;94333.31;2617890;47;20165;-75
2022/09/14 12:27:38;;;;;;;0.90;0.90;;;;;;;26.51;27.43;94298.50;2617157;47;20277;-77